createdAt,value
2018-10-07T00:00:08.290Z,100.00
2018-10-07T00:02:38.138Z,100.00
2018-10-07T00:05:08.107Z,100.00
2018-10-07T00:07:37.773Z,100.00
2018-10-07T00:10:07.576Z,100.00
2018-10-07T00:12:37.628Z,100.00
2018-10-07T00:15:07.745Z,100.00
2018-10-07T00:17:37.534Z,100.00
2018-10-07T00:20:07.381Z,100.00
2018-10-07T00:22:37.318Z,100.00
2018-10-07T00:25:07.140Z,100.00
2018-10-07T00:27:36.948Z,100.00
2018-10-07T00:30:07.297Z,100.00
2018-10-07T00:32:37.176Z,98.89
2018-10-07T00:35:07.002Z,98.36
2018-10-07T00:37:36.706Z,96.92
2018-10-07T00:40:06.689Z,96.66
2018-10-07T00:42:36.481Z,95.46
2018-10-07T00:45:06.342Z,95.55
2018-10-07T00:47:36.083Z,95.68
2018-10-07T00:50:06.016Z,95.71
2018-10-07T00:52:35.792Z,96.50
2018-10-07T00:55:05.721Z,96.28
2018-10-07T00:57:35.594Z,96.67
2018-10-07T01:00:06.144Z,97.16
2018-10-07T01:02:35.902Z,97.39
2018-10-07T01:05:06.238Z,99.86
2018-10-07T01:07:36.039Z,100.00
2018-10-07T01:10:05.899Z,100.00
2018-10-07T01:12:35.790Z,100.00
2018-10-07T01:15:05.874Z,100.00
2018-10-07T01:17:35.689Z,100.00
2018-10-07T01:20:05.567Z,100.00
2018-10-07T01:22:35.712Z,100.00
2018-10-07T01:25:05.873Z,100.00
2018-10-07T01:27:35.786Z,100.00
2018-10-07T01:30:05.887Z,100.00
2018-10-07T01:32:35.641Z,100.00
2018-10-07T01:35:05.649Z,100.00
2018-10-07T01:37:35.385Z,100.00
2018-10-07T01:40:05.190Z,100.00
2018-10-07T01:42:34.981Z,100.00
2018-10-07T01:45:04.806Z,100.00
2018-10-07T01:47:34.517Z,100.00
2018-10-07T01:50:04.355Z,100.00
2018-10-07T01:52:34.131Z,100.00
2018-10-07T01:55:03.918Z,100.00
2018-10-07T01:57:33.757Z,100.00
2018-10-07T02:00:03.697Z,100.00
2018-10-07T02:02:33.839Z,100.00
2018-10-07T02:05:03.926Z,100.00
2018-10-07T02:07:34.013Z,100.00
2018-10-07T02:10:04.297Z,100.00
2018-10-07T02:12:34.461Z,100.00
2018-10-07T02:15:04.293Z,100.00
2018-10-07T02:17:34.180Z,100.00
2018-10-07T02:20:04.067Z,100.00
2018-10-07T02:22:33.829Z,100.00
2018-10-07T02:25:04.109Z,100.00
2018-10-07T02:27:33.969Z,100.00
2018-10-07T02:30:03.837Z,100.00
2018-10-07T02:32:33.600Z,100.00
2018-10-07T02:35:03.399Z,100.00
2018-10-07T02:37:33.129Z,100.00
2018-10-07T02:40:03.146Z,100.00
2018-10-07T02:42:33.270Z,100.00
2018-10-07T02:45:03.163Z,100.00
2018-10-07T02:47:32.926Z,100.00
2018-10-07T02:50:10.303Z,100.00
2018-10-07T02:52:45.275Z,100.00
2018-10-07T02:55:15.329Z,100.00
2018-10-07T02:57:45.273Z,100.00
2018-10-07T03:00:16.872Z,100.00
2018-10-07T03:02:46.777Z,100.00
2018-10-07T03:05:16.582Z,100.00
2018-10-07T03:07:47.498Z,100.00
2018-10-07T03:10:17.657Z,100.00
2018-10-07T03:12:47.429Z,100.00
2018-10-07T03:15:17.724Z,100.00
2018-10-07T03:17:47.670Z,100.00
2018-10-07T03:20:17.442Z,100.00
2018-10-07T03:22:47.649Z,100.00
2018-10-07T03:25:17.540Z,100.00
2018-10-07T03:27:48.170Z,100.00
2018-10-07T03:30:18.046Z,100.00
2018-10-07T03:32:48.537Z,100.00
2018-10-07T03:35:18.735Z,100.00
2018-10-07T03:37:48.889Z,100.00
2018-10-07T03:40:20.019Z,100.00
2018-10-07T03:42:50.583Z,100.00
2018-10-07T03:45:20.532Z,100.00
2018-10-07T03:47:50.374Z,100.00
2018-10-07T03:50:20.295Z,100.00
2018-10-07T03:52:50.163Z,100.00
2018-10-07T03:55:20.189Z,100.00
2018-10-07T03:57:50.741Z,100.00
2018-10-07T04:00:20.899Z,100.00
2018-10-07T04:02:51.079Z,100.00
2018-10-07T04:05:21.242Z,100.00
2018-10-07T04:07:51.057Z,100.00
2018-10-07T04:10:21.433Z,100.00
2018-10-07T04:12:52.160Z,100.00
2018-10-07T04:15:22.277Z,100.00
2018-10-07T04:17:52.368Z,100.00
2018-10-07T04:20:22.242Z,100.00
2018-10-07T04:22:52.028Z,100.00
2018-10-07T04:25:23.279Z,100.00
2018-10-07T04:27:53.143Z,100.00
2018-10-07T04:30:23.005Z,100.00
2018-10-07T04:32:53.166Z,100.00
2018-10-07T04:35:23.017Z,100.00
2018-10-07T04:37:52.866Z,100.00
2018-10-07T04:40:22.861Z,100.00
2018-10-07T04:42:53.237Z,100.00
2018-10-07T04:45:23.666Z,100.00
2018-10-07T04:47:53.600Z,100.00
2018-10-07T04:50:25.013Z,100.00
2018-10-07T04:52:54.938Z,100.00
2018-10-07T04:55:25.444Z,100.00
2018-10-07T04:57:55.187Z,100.00
2018-10-07T05:00:25.216Z,100.00
2018-10-07T05:02:54.956Z,100.00
2018-10-07T05:05:25.341Z,100.00
2018-10-07T05:07:55.250Z,100.00
2018-10-07T05:11:05.299Z,100.00
2018-10-07T05:13:53.004Z,100.00
2018-10-07T05:16:39.190Z,100.00
2018-10-07T05:19:09.134Z,100.00
2018-10-07T05:21:39.039Z,100.00
2018-10-07T05:24:08.851Z,100.00
2018-10-07T05:26:38.693Z,100.00
2018-10-07T05:29:13.136Z,100.00
2018-10-07T05:31:44.087Z,100.00
2018-10-07T05:34:15.309Z,100.00
2018-10-07T05:36:45.070Z,100.00
2018-10-07T05:39:14.841Z,100.00
2018-10-07T05:41:44.725Z,100.00
2018-10-07T05:44:15.260Z,100.00
2018-10-07T05:46:45.186Z,100.00
2018-10-07T05:49:14.910Z,100.00
2018-10-07T05:51:44.990Z,100.00
2018-10-07T05:54:15.149Z,100.00
2018-10-07T05:56:45.089Z,100.00
2018-10-07T05:59:15.593Z,100.00
2018-10-07T06:01:46.687Z,100.00
2018-10-07T06:04:54.070Z,100.00
2018-10-07T06:07:25.418Z,100.00
2018-10-07T06:09:55.277Z,100.00
2018-10-07T06:12:25.629Z,100.00
2018-10-07T06:15:12.163Z,100.00
2018-10-07T06:17:41.910Z,100.00
2018-10-07T06:20:11.713Z,100.00
2018-10-07T06:22:41.428Z,100.00
2018-10-07T06:25:11.359Z,100.00
2018-10-07T06:27:41.058Z,100.00
2018-10-07T06:30:11.087Z,100.00
2018-10-07T06:32:40.886Z,100.00
2018-10-07T06:35:10.949Z,100.00
2018-10-07T06:37:40.723Z,100.00
2018-10-07T06:40:10.667Z,100.00
2018-10-07T06:42:40.437Z,100.00
2018-10-07T06:45:10.229Z,100.00
2018-10-07T06:47:40.166Z,100.00
2018-10-07T06:50:10.078Z,100.00
2018-10-07T06:52:39.799Z,100.00
2018-10-07T06:55:09.716Z,100.00
2018-10-07T06:57:39.464Z,100.00
2018-10-07T07:00:09.980Z,100.00
2018-10-07T07:02:39.978Z,100.00
2018-10-07T07:05:09.851Z,100.00
2018-10-07T07:07:39.646Z,100.00
2018-10-07T07:10:09.377Z,100.00
2018-10-07T07:12:39.107Z,100.00
2018-10-07T07:15:08.851Z,100.00
2018-10-07T07:17:38.532Z,100.00
2018-10-07T07:20:08.541Z,100.00
2018-10-07T07:22:38.262Z,100.00
2018-10-07T07:25:08.089Z,100.00
2018-10-07T07:27:37.871Z,100.00
2018-10-07T07:30:07.962Z,100.00
2018-10-07T07:32:37.839Z,100.00
2018-10-07T07:35:07.679Z,100.00
2018-10-07T07:37:37.411Z,100.00
2018-10-07T07:40:07.727Z,100.00
2018-10-07T07:42:37.618Z,100.00
2018-10-07T07:45:07.674Z,100.00
2018-10-07T07:47:37.451Z,100.00
2018-10-07T07:50:07.364Z,100.00
2018-10-07T07:52:37.318Z,100.00
2018-10-07T07:55:07.699Z,100.00
2018-10-07T07:57:37.618Z,100.00
2018-10-07T08:00:07.409Z,100.00
2018-10-07T08:02:37.286Z,100.00
2018-10-07T08:05:07.065Z,100.00
2018-10-07T08:07:37.009Z,100.00
2018-10-07T08:10:06.781Z,100.00
2018-10-07T08:12:36.576Z,100.00
2018-10-07T08:15:07.162Z,100.00
2018-10-07T08:17:37.152Z,100.00
2018-10-07T08:20:07.130Z,100.00
2018-10-07T08:22:36.866Z,100.00
2018-10-07T08:25:06.729Z,100.00
2018-10-07T08:27:36.545Z,100.00
2018-10-07T08:30:06.458Z,100.00
2018-10-07T08:32:36.402Z,100.00
2018-10-07T08:35:06.571Z,99.93
2018-10-07T08:37:36.359Z,99.79
2018-10-07T08:40:06.326Z,100.00
2018-10-07T08:42:36.185Z,100.00
2018-10-07T08:45:06.422Z,98.70
2018-10-07T08:47:36.233Z,95.98
2018-10-07T08:50:06.050Z,94.08
2018-10-07T08:52:35.749Z,94.50
2018-10-07T08:55:05.676Z,94.98
2018-10-07T08:57:35.551Z,95.26
2018-10-07T09:00:05.658Z,95.87
2018-10-07T09:02:35.366Z,95.36
2018-10-07T09:05:05.421Z,93.30
2018-10-07T09:07:35.206Z,93.74
2018-10-07T09:10:05.232Z,93.65
2018-10-07T09:12:34.943Z,91.11
2018-10-07T09:15:04.861Z,88.55
2018-10-07T09:17:34.863Z,88.38
2018-10-07T09:20:05.002Z,89.67
2018-10-07T09:22:34.721Z,84.08
2018-10-07T09:25:04.593Z,84.16
2018-10-07T09:27:34.631Z,86.59
2018-10-07T09:30:04.422Z,84.86
2018-10-07T09:32:34.403Z,84.48
2018-10-07T09:35:04.070Z,82.95
2018-10-07T09:37:33.807Z,84.97
2018-10-07T09:40:03.584Z,83.57
2018-10-07T09:42:33.379Z,81.79
2018-10-07T09:45:03.097Z,82.15
2018-10-07T09:47:33.420Z,80.19
2018-10-07T09:50:03.495Z,80.38
2018-10-07T09:52:33.233Z,80.45
2018-10-07T09:55:02.984Z,80.86
2018-10-07T09:57:32.886Z,79.61
2018-10-07T10:00:02.590Z,78.80
2018-10-07T10:02:32.397Z,78.23
2018-10-07T10:05:02.177Z,75.63
2018-10-07T10:07:31.918Z,75.57
2018-10-07T10:10:01.618Z,74.99
2018-10-07T10:12:31.369Z,74.41
2018-10-07T10:15:01.078Z,75.84
2018-10-07T10:17:30.980Z,75.29
2018-10-07T10:20:09.636Z,77.50
2018-10-07T10:22:59.798Z,72.92
2018-10-07T10:26:17.748Z,73.81
2018-10-07T10:29:27.221Z,70.73
2018-10-07T10:32:37.026Z,71.60
2018-10-07T10:35:17.748Z,71.01
2018-10-07T10:38:04.344Z,69.18
2018-10-07T10:40:38.906Z,70.67
2018-10-07T10:43:48.205Z,70.00
2018-10-07T10:46:33.531Z,65.57
2018-10-07T10:49:13.343Z,66.76
2018-10-07T10:51:52.108Z,69.22
2018-10-07T10:55:35.515Z,68.13
2018-10-07T10:58:14.489Z,70.25
2018-10-07T11:00:54.365Z,68.04
2018-10-07T11:03:55.939Z,68.64
2018-10-07T11:06:41.462Z,60.43
2018-10-07T11:09:54.528Z,61.03
2018-10-07T11:14:50.565Z,59.46
2018-10-07T11:17:44.917Z,58.60
2018-10-07T11:20:31.764Z,59.31
2018-10-07T11:24:11.493Z,54.91
2018-10-07T11:26:52.695Z,58.25
2018-10-07T11:29:44.818Z,56.68
2018-10-07T11:32:27.638Z,54.88
2018-10-07T11:37:20.386Z,56.00
2018-10-07T11:40:20.736Z,55.42
2018-10-07T11:45:10.035Z,53.79
2018-10-07T11:50:05.828Z,55.32
2018-10-07T11:53:26.416Z,55.30
2018-10-07T11:55:56.360Z,58.50
2018-10-07T11:58:26.453Z,56.77
2018-10-07T12:00:56.454Z,54.42
2018-10-07T12:03:26.832Z,57.65
2018-10-07T12:05:57.843Z,55.99
2018-10-07T12:08:27.817Z,58.08
2018-10-07T12:10:58.899Z,59.68
2018-10-07T12:13:28.890Z,58.42
2018-10-07T12:15:58.941Z,56.98
2018-10-07T12:18:29.023Z,57.52
2018-10-07T12:20:59.016Z,59.09
2018-10-07T12:23:29.109Z,56.88
2018-10-07T12:25:58.946Z,57.03
2018-10-07T12:28:29.600Z,58.78
2018-10-07T12:31:00.098Z,56.09
2018-10-07T12:33:30.129Z,52.62
2018-10-07T12:36:00.423Z,50.77
2018-10-07T12:38:30.524Z,52.90
2018-10-07T12:41:03.884Z,50.42
2018-10-07T12:43:33.770Z,51.71
2018-10-07T12:46:03.914Z,52.82
2018-10-07T12:48:35.934Z,55.82
2018-10-07T12:51:07.030Z,53.77
2018-10-07T12:53:38.054Z,50.98
2018-10-07T12:56:08.197Z,53.09
2018-10-07T12:58:38.304Z,52.20
2018-10-07T13:01:09.285Z,52.51
2018-10-07T13:03:39.612Z,50.28
2018-10-07T13:06:09.316Z,51.00
2018-10-07T13:08:39.519Z,52.68
2018-10-07T13:11:09.297Z,49.72
2018-10-07T13:13:39.055Z,50.78
2018-10-07T13:16:09.226Z,50.17
2018-10-07T13:18:39.305Z,49.20
2018-10-07T13:21:09.183Z,48.91
2018-10-07T13:23:38.962Z,49.80
2018-10-07T13:26:08.742Z,50.31
2018-10-07T13:28:39.164Z,48.61
2018-10-07T13:31:09.639Z,48.61
2018-10-07T13:33:39.524Z,48.69
2018-10-07T13:36:09.318Z,48.76
2018-10-07T13:38:39.103Z,48.82
2018-10-07T13:41:09.035Z,48.77
2018-10-07T13:43:38.948Z,47.12
2018-10-07T13:46:09.399Z,48.35
2018-10-07T13:48:39.205Z,50.03
2018-10-07T13:51:09.064Z,48.54
2018-10-07T13:53:39.130Z,49.23
2018-10-07T13:56:09.199Z,51.40
2018-10-07T13:58:39.133Z,49.36
2018-10-07T14:01:08.850Z,48.83
2018-10-07T14:03:38.639Z,48.77
2018-10-07T14:06:08.751Z,50.14
2018-10-07T14:08:38.499Z,49.55
2018-10-07T14:11:08.432Z,49.85
2018-10-07T14:13:38.186Z,49.86
2018-10-07T14:16:08.121Z,47.92
2018-10-07T14:18:37.932Z,49.58
2018-10-07T14:21:07.706Z,49.66
2018-10-07T14:23:37.426Z,48.26
2018-10-07T14:26:07.258Z,47.64
2018-10-07T14:28:37.077Z,48.51
2018-10-07T14:31:07.077Z,49.36
2018-10-07T14:33:37.368Z,50.30
2018-10-07T14:36:07.227Z,51.91
2018-10-07T14:38:36.967Z,53.30
2018-10-07T14:41:06.904Z,52.50
2018-10-07T14:43:36.804Z,52.67
2018-10-07T14:46:06.611Z,54.41
2018-10-07T14:48:36.526Z,54.45
2018-10-07T14:51:06.255Z,54.57
2018-10-07T14:53:36.317Z,53.14
2018-10-07T14:56:06.059Z,55.00
2018-10-07T14:58:35.858Z,53.85
2018-10-07T15:01:05.995Z,54.52
2018-10-07T15:03:35.928Z,53.90
2018-10-07T15:06:05.883Z,55.02
2018-10-07T15:08:35.643Z,56.37
2018-10-07T15:11:05.354Z,55.20
2018-10-07T15:13:35.162Z,56.43
2018-10-07T15:16:04.908Z,56.28
2018-10-07T15:18:34.694Z,58.14
2018-10-07T15:21:04.516Z,57.16
2018-10-07T15:23:34.344Z,57.38
2018-10-07T15:26:04.037Z,56.01
2018-10-07T15:28:33.800Z,57.63
2018-10-07T15:31:03.735Z,59.83
2018-10-07T15:33:33.451Z,58.87
2018-10-07T15:36:03.244Z,58.62
2018-10-07T15:38:32.993Z,60.43
2018-10-07T15:41:02.813Z,58.67
2018-10-07T15:43:32.809Z,59.06
2018-10-07T15:46:02.577Z,57.01
2018-10-07T15:48:32.798Z,57.85
2018-10-07T15:51:02.639Z,58.02
2018-10-07T15:53:32.495Z,58.92
2018-10-07T15:56:02.291Z,58.25
2018-10-07T15:58:32.141Z,57.44
2018-10-07T16:01:01.987Z,58.63
2018-10-07T16:03:31.708Z,58.63
2018-10-07T16:06:01.462Z,58.99
2018-10-07T16:08:31.485Z,59.35
2018-10-07T16:11:01.193Z,59.66
2018-10-07T16:13:31.053Z,59.51
2018-10-07T16:16:00.816Z,60.39
2018-10-07T16:18:30.738Z,58.90
2018-10-07T16:21:00.474Z,59.19
2018-10-07T16:23:30.564Z,59.76
2018-10-07T16:26:00.373Z,60.10
2018-10-07T16:28:30.188Z,62.04
2018-10-07T16:30:59.994Z,61.18
2018-10-07T16:33:29.965Z,59.87
2018-10-07T16:35:59.968Z,62.09
2018-10-07T16:38:29.683Z,63.30
2018-10-07T16:40:59.430Z,64.74
2018-10-07T16:43:29.393Z,65.78
2018-10-07T16:45:59.125Z,65.91
2018-10-07T16:48:28.832Z,67.72
2018-10-07T16:50:58.632Z,68.19
2018-10-07T16:53:29.111Z,68.71
2018-10-07T16:55:59.003Z,67.74
2018-10-07T16:58:28.900Z,70.03
2018-10-07T17:00:58.675Z,72.39
2018-10-07T17:03:28.492Z,71.95
2018-10-07T17:05:58.284Z,73.00
2018-10-07T17:08:28.032Z,72.29
2018-10-07T17:10:57.825Z,73.99
2018-10-07T17:13:27.635Z,75.36
2018-10-07T17:15:57.444Z,75.89
2018-10-07T17:18:27.328Z,77.89
2018-10-07T17:21:03.890Z,79.20
2018-10-07T17:23:33.634Z,81.31
2018-10-07T17:26:03.386Z,78.65
2018-10-07T17:28:33.348Z,79.76
2018-10-07T17:31:03.114Z,79.94
2018-10-07T17:33:32.812Z,76.08
2018-10-07T17:36:02.572Z,77.10
2018-10-07T17:38:32.522Z,74.20
2018-10-07T17:41:02.441Z,72.76
2018-10-07T17:43:32.264Z,72.97
2018-10-07T17:46:02.007Z,71.45
2018-10-07T17:48:32.334Z,71.55
2018-10-07T17:51:02.254Z,71.52
2018-10-07T17:53:32.204Z,71.50
2018-10-07T17:56:02.170Z,70.95
2018-10-07T17:58:32.014Z,70.94
2018-10-07T18:01:01.906Z,71.38
2018-10-07T18:03:31.826Z,70.83
2018-10-07T18:06:01.730Z,72.59
2018-10-07T18:08:31.591Z,73.11
2018-10-07T18:11:01.401Z,70.76
2018-10-07T18:13:31.203Z,70.27
2018-10-07T18:16:00.978Z,70.36
2018-10-07T18:18:31.036Z,69.98
2018-10-07T18:21:00.833Z,71.22
2018-10-07T18:23:30.664Z,70.76
2018-10-07T18:26:00.488Z,72.96
2018-10-07T18:28:30.409Z,74.80
2018-10-07T18:31:00.205Z,76.71
2018-10-07T18:33:29.942Z,76.56
2018-10-07T18:35:59.798Z,76.86
2018-10-07T18:38:29.632Z,77.18
2018-10-07T18:40:59.474Z,79.19
2018-10-07T18:43:29.446Z,80.49
2018-10-07T18:45:59.455Z,80.61
2018-10-07T18:48:29.350Z,82.92
2018-10-07T18:50:59.074Z,81.90
2018-10-07T18:53:28.859Z,81.97
2018-10-07T18:55:58.712Z,83.90
2018-10-07T18:58:29.670Z,84.58
2018-10-07T19:00:59.716Z,86.74
2018-10-07T19:03:29.564Z,86.56
2018-10-07T19:05:59.384Z,86.72
2018-10-07T19:08:29.360Z,87.47
2018-10-07T19:10:59.748Z,89.52
2018-10-07T19:13:30.539Z,88.55
2018-10-07T19:16:01.556Z,90.05
2018-10-07T19:18:31.813Z,88.89
2018-10-07T19:21:02.120Z,89.26
2018-10-07T19:23:32.786Z,88.06
2018-10-07T19:26:02.586Z,89.06
2018-10-07T19:28:33.519Z,88.48
2018-10-07T19:31:04.234Z,88.46
2018-10-07T19:33:34.101Z,88.62
2018-10-07T19:36:04.691Z,89.53
2018-10-07T19:38:47.639Z,89.28
2018-10-07T19:41:18.286Z,90.22
2018-10-07T19:43:53.257Z,91.93
2018-10-07T19:46:25.060Z,92.77
2018-10-07T19:48:57.131Z,92.57
2018-10-07T19:51:27.942Z,93.47
2018-10-07T19:53:57.955Z,95.28
2018-10-07T19:56:28.704Z,94.21
2018-10-07T19:58:58.653Z,93.68
2018-10-07T20:01:29.018Z,94.74
2018-10-07T20:03:59.226Z,95.78
2018-10-07T20:06:29.693Z,95.97
2018-10-07T20:09:01.056Z,97.49
2018-10-07T20:11:30.898Z,98.06
2018-10-07T20:14:00.989Z,98.77
2018-10-07T20:16:30.950Z,99.48
2018-10-07T20:19:00.851Z,99.36
2018-10-07T20:21:30.797Z,100.00
2018-10-07T20:24:00.718Z,100.00
2018-10-07T20:26:30.643Z,100.00
2018-10-07T20:29:00.668Z,100.00
2018-10-07T20:31:30.630Z,100.00
2018-10-07T20:34:00.729Z,100.00
2018-10-07T20:36:31.721Z,100.00
2018-10-07T20:39:01.760Z,100.00
2018-10-07T20:41:31.637Z,100.00
2018-10-07T20:44:01.695Z,100.00
2018-10-07T20:46:31.832Z,100.00
2018-10-07T20:49:01.820Z,100.00
2018-10-07T20:51:31.939Z,100.00
2018-10-07T20:54:02.171Z,100.00
2018-10-07T20:56:32.054Z,100.00
2018-10-07T20:59:02.062Z,100.00
2018-10-07T21:01:31.875Z,100.00
2018-10-07T21:04:01.993Z,100.00
2018-10-07T21:06:31.974Z,100.00
2018-10-07T21:09:01.736Z,100.00
2018-10-07T21:11:31.575Z,100.00
2018-10-07T21:14:01.313Z,100.00
2018-10-07T21:16:31.128Z,100.00
2018-10-07T21:19:01.101Z,100.00
2018-10-07T21:21:30.865Z,100.00
2018-10-07T21:24:00.804Z,100.00
2018-10-07T21:26:30.625Z,100.00
2018-10-07T21:29:00.498Z,100.00
2018-10-07T21:31:31.207Z,100.00
2018-10-07T21:34:00.918Z,100.00
2018-10-07T21:36:30.768Z,100.00
2018-10-07T21:39:00.518Z,100.00
2018-10-07T21:41:34.762Z,100.00
2018-10-07T21:44:04.498Z,100.00
2018-10-07T21:46:34.527Z,100.00
2018-10-07T21:49:04.263Z,100.00
2018-10-07T21:51:34.206Z,100.00
2018-10-07T21:54:03.957Z,100.00
2018-10-07T21:56:33.814Z,100.00
2018-10-07T21:59:03.550Z,100.00
2018-10-07T22:01:33.549Z,100.00
2018-10-07T22:04:03.467Z,100.00
2018-10-07T22:06:33.221Z,100.00
2018-10-07T22:09:06.923Z,100.00
2018-10-07T22:11:36.919Z,100.00
2018-10-07T22:14:06.617Z,100.00
2018-10-07T22:16:36.317Z,100.00
2018-10-07T22:19:06.053Z,100.00
2018-10-07T22:21:35.939Z,100.00
2018-10-07T22:24:07.276Z,100.00
2018-10-07T22:26:37.400Z,100.00
2018-10-07T22:29:07.482Z,100.00
2018-10-07T22:31:37.211Z,100.00
2018-10-07T22:34:07.122Z,100.00
2018-10-07T22:36:36.859Z,100.00
2018-10-07T22:39:08.418Z,100.00
2018-10-07T22:41:38.308Z,100.00
2018-10-07T22:44:08.008Z,100.00
2018-10-07T22:46:37.784Z,100.00
2018-10-07T22:49:07.673Z,100.00
2018-10-07T22:51:37.560Z,100.00
2018-10-07T22:54:07.629Z,100.00
2018-10-07T22:56:37.405Z,100.00
2018-10-07T22:59:07.410Z,100.00
2018-10-07T23:01:37.309Z,100.00
2018-10-07T23:04:07.087Z,100.00
2018-10-07T23:06:36.925Z,100.00
2018-10-07T23:09:10.975Z,100.00
2018-10-07T23:11:41.014Z,100.00
2018-10-07T23:14:10.842Z,100.00
2018-10-07T23:16:40.650Z,100.00
2018-10-07T23:19:10.501Z,100.00
2018-10-07T23:21:40.242Z,100.00
2018-10-07T23:24:10.064Z,100.00
2018-10-07T23:26:39.870Z,100.00
2018-10-07T23:29:09.563Z,100.00
2018-10-07T23:31:39.386Z,100.00
2018-10-07T23:34:09.105Z,100.00
2018-10-07T23:36:41.778Z,100.00
2018-10-07T23:39:12.464Z,100.00
2018-10-07T23:41:42.255Z,100.00
2018-10-07T23:44:11.929Z,100.00
2018-10-07T23:46:41.705Z,100.00
2018-10-07T23:49:11.619Z,100.00
2018-10-07T23:51:42.521Z,100.00
2018-10-07T23:54:12.043Z,100.00
2018-10-07T23:56:41.830Z,100.00
2018-10-07T23:59:11.542Z,100.00
